Time;durP1;ratioP1;P1;durP2;ratioP2;P2;SDS_P1;SDS_P2;PMS_P1;PMS_P2;Temp;Humidity;BMP_temperature;BMP_pressure;BME280_temperature;BME280_humidity;BME280_pressure;Samples;Min_cycle;Max_cycle;Signal;HPM_P1;HPM_P2
2022/03/08 00:01:59;;;;;;;6.30;4.82;;;;;;;18.91;34.35;101155.56;4983082;28;20152;-52
2022/03/08 00:04:27;;;;;;;7.18;4.65;;;;;;;18.91;34.30;101152.91;4985044;28;20896;-56
2022/03/08 00:06:53;;;;;;;7.72;4.38;;;;;;;18.90;34.30;101160.00;4984605;28;20434;-52
2022/03/08 00:09:18;;;;;;;5.72;4.57;;;;;;;18.89;34.36;101163.69;4984121;28;20034;-51
2022/03/08 00:11:44;;;;;;;4.88;4.20;;;;;;;18.89;34.33;101157.59;4980201;28;20069;-48
2022/03/08 00:14:09;;;;;;;5.32;4.25;;;;;;;18.85;34.36;101151.84;4985025;28;20042;-53
2022/03/08 00:16:35;;;;;;;5.30;4.45;;;;;;;18.84;34.37;101158.13;4986128;28;20030;-56
2022/03/08 00:19:00;;;;;;;6.05;4.65;;;;;;;18.85;34.57;101156.31;4983754;28;20030;-53
2022/03/08 00:21:26;;;;;;;5.28;4.40;;;;;;;18.84;34.53;101144.94;4984520;28;20124;-54
2022/03/08 00:23:51;;;;;;;4.55;4.15;;;;;;;18.84;34.55;101152.84;4984575;28;20084;-53
2022/03/08 00:26:17;;;;;;;5.25;4.25;;;;;;;18.84;34.66;101150.22;4984670;28;20027;-51
2022/03/08 00:28:42;;;;;;;6.68;4.60;;;;;;;18.83;34.64;101143.28;4984714;28;20077;-53
2022/03/08 00:31:08;;;;;;;5.25;4.60;;;;;;;18.84;34.71;101149.38;4984320;28;20031;-53
2022/03/08 00:33:34;;;;;;;4.25;3.80;;;;;;;18.83;34.91;101151.22;4984112;28;20030;-45
2022/03/08 00:36:00;;;;;;;4.43;4.00;;;;;;;18.83;34.98;101143.28;4981501;28;20164;-51
2022/03/08 00:38:25;;;;;;;5.20;4.28;;;;;;;18.82;34.86;101146.94;4983179;28;20037;-53
2022/03/08 00:40:51;;;;;;;4.35;3.63;;;;;;;18.82;34.98;101146.94;4982612;28;20501;-47
2022/03/08 00:43:17;;;;;;;4.43;4.03;;;;;;;18.82;35.14;101152.22;4981931;28;20045;-49
2022/03/08 00:45:42;;;;;;;5.30;3.85;;;;;;;18.80;35.10;101135.72;4984715;28;20037;-51
2022/03/08 00:48:08;;;;;;;4.57;3.55;;;;;;;18.81;35.10;101142.66;4985030;28;20022;-48
2022/03/08 00:50:36;;;;;;;5.35;4.15;;;;;;;18.81;35.30;101147.94;4986479;28;20030;-51
2022/03/08 00:53:02;;;;;;;4.88;3.85;;;;;;;18.82;35.22;101143.47;4982412;28;20040;-52
2022/03/08 00:55:30;;;;;;;5.63;4.10;;;;;;;18.82;35.27;101146.09;4986100;28;20034;-56
2022/03/08 00:57:56;;;;;;;4.43;2.95;;;;;;;18.82;35.19;101156.66;4985483;28;20041;-51
2022/03/08 01:00:24;;;;;;;4.00;3.33;;;;;;;18.81;35.33;101144.47;4984458;28;20038;-50
2022/03/08 01:02:50;;;;;;;3.78;3.42;;;;;;;18.81;35.48;101153.22;4983644;28;20026;-52
2022/03/08 01:05:16;;;;;;;3.88;3.47;;;;;;;18.81;35.32;101150.56;4985959;28;20033;-52
2022/03/08 01:07:42;;;;;;;3.50;3.20;;;;;;;18.81;35.33;101149.75;4985971;28;20034;-45
2022/03/08 01:10:12;;;;;;;3.53;3.13;;;;;;;18.80;35.35;101143.66;4986449;28;20299;-50
2022/03/08 01:12:37;;;;;;;7.18;3.22;;;;;;;18.80;35.47;101122.53;4983102;28;20054;-54
2022/03/08 01:15:04;;;;;;;3.72;3.25;;;;;;;18.80;35.55;101134.91;4985050;28;20372;-56
2022/03/08 01:17:30;;;;;;;4.13;3.05;;;;;;;18.79;35.51;101134.09;4986101;28;20037;-54
2022/03/08 01:19:55;;;;;;;3.75;3.15;;;;;;;18.79;35.53;101130.63;4985200;28;20030;-52
2022/03/08 01:22:21;;;;;;;3.92;3.53;;;;;;;18.77;35.74;101128.16;4985566;28;20030;-48
2022/03/08 01:24:46;;;;;;;3.38;3.08;;;;;;;18.77;35.70;101127.34;4984648;28;20085;-47
2022/03/08 01:27:12;;;;;;;3.88;3.40;;;;;;;18.76;35.72;101129.16;4985936;28;20089;-48
2022/03/08 01:29:37;;;;;;;4.03;3.22;;;;;;;18.75;35.74;101130.16;4982463;28;20041;-54
2022/03/08 01:32:03;;;;;;;3.35;3.05;;;;;;;18.75;35.66;101114.34;4985368;28;20041;-52
2022/03/08 01:34:29;;;;;;;4.75;3.45;;;;;;;18.76;35.66;101136.28;4984150;28;20134;-51
2022/03/08 01:36:55;;;;;;;4.25;3.30;;;;;;;18.74;35.75;101125.06;4984906;28;20030;-53
2022/03/08 01:39:21;;;;;;;3.70;3.38;;;;;;;18.74;35.66;101127.72;4985011;28;20042;-46
2022/03/08 01:41:47;;;;;;;3.42;3.13;;;;;;;18.73;35.69;101129.53;4984032;28;20037;-50
2022/03/08 01:44:12;;;;;;;5.82;3.42;;;;;;;18.73;35.84;101126.91;4982607;28;20030;-47
2022/03/08 01:46:38;;;;;;;3.10;2.80;;;;;;;18.72;35.86;101130.53;4982386;28;20116;-51
2022/03/08 01:49:05;;;;;;;4.10;3.50;;;;;;;18.72;35.91;101130.53;4982128;28;20074;-52
2022/03/08 01:51:31;;;;;;;4.40;3.20;;;;;;;18.71;35.98;101133.34;4977956;28;20038;-49
2022/03/08 01:53:57;;;;;;;5.25;3.33;;;;;;;18.71;36.12;101122.78;4981281;28;20101;-49
2022/03/08 01:56:23;;;;;;;2.67;2.42;;;;;;;18.70;36.09;101129.91;4979245;28;20026;-53
2022/03/08 01:58:48;;;;;;;4.07;3.53;;;;;;;18.70;35.79;101129.91;4983470;28;20027;-52
2022/03/08 02:01:14;;;;;;;3.75;3.17;;;;;;;18.69;36.21;101119.50;4980782;28;20034;-52
2022/03/08 02:03:40;;;;;;;5.40;3.35;;;;;;;18.69;36.40;101124.78;4983792;28;20030;-52
2022/03/08 02:06:05;;;;;;;3.13;2.83;;;;;;;18.68;36.32;101117.88;4984785;28;20034;-47
2022/03/08 02:08:31;;;;;;;3.60;2.85;;;;;;;18.68;36.35;101118.69;4982484;28;20053;-50
2022/03/08 02:13:29;;;;;;;4.10;2.83;;;;;;;18.66;36.23;101118.06;4932378;22;20460;-48
2022/03/08 02:15:56;;;;;;;2.60;2.40;;;;;;;18.65;36.51;101124.34;5026399;28;20037;-45
2022/03/08 02:18:21;;;;;;;3.53;2.88;;;;;;;18.66;36.48;101114.59;5026540;28;20488;-48
2022/03/08 02:20:47;;;;;;;4.07;3.28;;;;;;;18.64;36.44;101114.78;5026087;28;20207;-51
2022/03/08 02:23:13;;;;;;;7.78;2.90;;;;;;;18.63;36.32;101109.69;5026171;28;20034;-52
2022/03/08 02:25:39;;;;;;;3.03;2.42;;;;;;;18.62;36.49;101106.22;5026012;28;20026;-51
2022/03/08 02:28:06;;;;;;;2.53;2.33;;;;;;;18.62;36.52;101113.31;5026162;28;20032;-50
2022/03/08 02:30:32;;;;;;;3.50;2.97;;;;;;;18.61;36.34;101109.84;5026285;28;20034;-56
2022/03/08 02:32:58;;;;;;;2.40;2.20;;;;;;;18.61;36.64;101115.13;5026251;28;20052;-49
2022/03/08 02:35:26;;;;;;;2.72;2.53;;;;;;;18.60;36.74;101110.84;5026441;28;20508;-50
2022/03/08 02:37:58;;;;;;;3.08;2.78;;;;;;;18.58;36.56;101102.28;5029592;28;20334;-55
2022/03/08 02:40:27;;;;;;;3.72;3.05;;;;;;;18.58;36.51;101100.47;5029941;28;20080;-52
2022/03/08 02:42:53;;;;;;;2.97;2.60;;;;;;;18.58;36.55;101102.28;5029644;28;20033;-50
2022/03/08 02:45:19;;;;;;;3.25;2.95;;;;;;;18.58;36.71;101111.00;5029620;28;20102;-54
2022/03/08 02:47:45;;;;;;;3.67;3.00;;;;;;;18.58;36.45;101102.28;5029843;28;20033;-46
2022/03/08 02:50:14;;;;;;;2.80;2.58;;;;;;;18.56;36.47;101110.38;5029502;28;20384;-52
2022/03/08 02:52:42;;;;;;;3.30;2.75;;;;;;;18.56;36.44;101099.00;5029503;28;20029;-50
2022/03/08 02:55:08;;;;;;;3.10;2.80;;;;;;;18.57;36.31;101103.28;5029741;28;20029;-50
2022/03/08 02:57:34;;;;;;;4.00;2.78;;;;;;;18.55;36.22;101106.09;5029647;28;20036;-44
2022/03/08 03:00:00;;;;;;;2.33;2.10;;;;;;;18.55;36.25;101102.63;5029678;28;20029;-47
2022/03/08 03:02:25;;;;;;;2.95;2.65;;;;;;;18.55;36.22;101102.63;5029482;28;20029;-51
2022/03/08 03:04:52;;;;;;;3.05;2.75;;;;;;;18.55;36.05;101089.44;5029325;28;20028;-51
2022/03/08 03:07:17;;;;;;;4.10;2.83;;;;;;;18.55;36.28;101114.00;5029732;28;20034;-51
2022/03/08 03:09:43;;;;;;;2.88;2.65;;;;;;;18.56;36.16;101110.38;5024888;28;20085;-52
2022/03/08 03:12:09;;;;;;;3.97;2.83;;;;;;;18.55;36.17;101102.63;5013063;28;20084;-47
2022/03/08 03:14:35;;;;;;;3.20;2.67;;;;;;;18.56;36.07;101114.81;5013605;28;20033;-50
2022/03/08 03:17:01;;;;;;;4.25;2.80;;;;;;;18.56;36.33;101104.28;5013041;28;20116;-53
2022/03/08 03:19:27;;;;;;;2.90;2.60;;;;;;;18.56;36.15;101109.56;5019843;28;20391;-53
2022/03/08 03:21:52;;;;;;;3.65;2.80;;;;;;;18.55;36.21;101103.44;5020299;28;20076;-50
2022/03/08 03:24:17;;;;;;;2.70;2.50;;;;;;;18.55;36.13;101102.63;5010878;28;20088;-54
2022/03/08 03:26:43;;;;;;;4.05;2.40;;;;;;;18.55;36.00;101097.34;5020271;28;20117;-50
2022/03/08 03:29:09;;;;;;;2.42;2.22;;;;;;;18.55;36.22;101092.06;5012402;28;20520;-53
2022/03/08 03:31:35;;;;;;;3.20;2.75;;;;;;;18.53;36.24;101100.19;5009454;28;20033;-52
2022/03/08 03:34:00;;;;;;;3.00;2.58;;;;;;;18.53;36.26;101094.06;5016724;28;20031;-48
2022/03/08 03:36:26;;;;;;;2.72;2.47;;;;;;;18.51;36.20;101094.25;5009626;28;20622;-52
2022/03/08 03:38:52;;;;;;;2.83;2.63;;;;;;;18.50;36.54;101094.44;5009883;28;20022;-50
2022/03/08 03:41:18;;;;;;;3.20;2.45;;;;;;;18.50;36.35;101094.44;5009391;28;20113;-54
2022/03/08 03:43:44;;;;;;;3.38;2.00;;;;;;;18.48;36.49;101091.97;5013001;28;20540;-48
2022/03/08 03:46:09;;;;;;;3.80;2.13;;;;;;;18.48;36.35;101097.25;5012742;28;20041;-47
2022/03/08 03:48:35;;;;;;;2.78;2.17;;;;;;;18.48;36.35;101096.44;5016039;28;20021;-44
2022/03/08 03:51:00;;;;;;;2.63;2.10;;;;;;;18.47;36.39;101090.34;5008840;28;20030;-50
2022/03/08 03:53:26;;;;;;;2.50;2.30;;;;;;;18.48;36.42;101110.44;5016305;28;20338;-50
2022/03/08 03:55:51;;;;;;;2.88;2.47;;;;;;;18.46;36.49;101093.97;5015754;28;20030;-48
2022/03/08 03:58:17;;;;;;;2.00;1.80;;;;;;;18.46;36.53;101098.44;5008983;28;20054;-50
2022/03/08 04:00:42;;;;;;;2.65;2.08;;;;;;;18.46;36.63;101103.72;5016619;28;20113;-52
2022/03/08 04:03:07;;;;;;;2.65;1.90;;;;;;;18.45;36.41;101094.97;5015106;28;20060;-49
2022/03/08 04:05:33;;;;;;;3.10;1.85;;;;;;;18.44;36.28;101101.25;5017651;28;20091;-46
2022/03/08 04:07:59;;;;;;;2.42;2.22;;;;;;;18.45;36.51;101102.06;5019064;28;20045;-50
2022/03/08 04:10:25;;;;;;;2.40;1.95;;;;;;;18.45;36.53;101104.72;5018326;28;20108;-48
2022/03/08 04:12:50;;;;;;;2.58;2.38;;;;;;;18.44;36.63;101105.72;5008651;28;20053;-53
2022/03/08 04:15:17;;;;;;;2.30;2.03;;;;;;;18.43;36.51;101110.16;5015343;28;20033;-48
2022/03/08 04:17:42;;;;;;;3.03;2.40;;;;;;;18.44;36.59;101105.72;5010579;28;20489;-49
2022/03/08 04:20:09;;;;;;;2.30;2.10;;;;;;;18.42;36.54;101103.28;5014415;28;20044;-48
2022/03/08 04:22:35;;;;;;;2.38;1.92;;;;;;;18.43;36.67;101112.81;5015962;28;20117;-49
2022/03/08 04:25:01;;;;;;;2.40;2.00;;;;;;;18.41;36.65;101100.81;5015605;28;20149;-52
2022/03/08 04:27:26;;;;;;;2.42;1.75;;;;;;;18.42;36.68;101107.75;5008739;28;20029;-49
2022/03/08 04:29:53;;;;;;;2.40;2.13;;;;;;;18.40;36.55;101115.84;5015915;28;20045;-52
2022/03/08 04:32:18;;;;;;;2.55;2.17;;;;;;;18.39;36.56;101122.09;5014659;28;20029;-52
2022/03/08 04:34:44;;;;;;;3.40;2.33;;;;;;;18.38;36.46;101120.47;5015263;28;20049;-51
2022/03/08 04:37:09;;;;;;;2.25;1.92;;;;;;;18.37;36.57;101118.84;5008159;28;20404;-49
2022/03/08 04:39:34;;;;;;;2.05;1.90;;;;;;;18.37;36.59;101110.09;5015498;28;20356;-52
2022/03/08 04:42:00;;;;;;;2.25;1.90;;;;;;;18.36;36.76;101111.91;5011655;28;20473;-47
2022/03/08 04:44:26;;;;;;;1.90;1.48;;;;;;;18.35;36.84;101122.66;5011862;28;20026;-48
2022/03/08 04:46:51;;;;;;;2.72;2.00;;;;;;;18.34;36.91;101115.72;5017484;28;20692;-50
2022/03/08 04:49:17;;;;;;;5.70;2.45;;;;;;;18.34;36.79;101119.19;5019120;28;20037;-48
2022/03/08 04:51:42;;;;;;;1.80;1.65;;;;;;;18.33;36.93;101119.38;5009819;28;20026;-44
2022/03/08 04:54:07;;;;;;;1.77;1.30;;;;;;;18.32;36.92;101123.81;5014250;28;20037;-48
2022/03/08 04:56:34;;;;;;;1.92;1.73;;;;;;;18.31;36.78;101119.53;5015158;28;20044;-48
2022/03/08 04:58:59;;;;;;;1.90;1.58;;;;;;;18.33;36.76;101140.47;5007499;28;20168;-47
2022/03/08 05:01:25;;;;;;;1.95;1.73;;;;;;;18.31;36.71;101134.56;5014983;28;20116;-46
2022/03/08 05:03:50;;;;;;;2.15;1.67;;;;;;;18.31;36.90;101137.19;5014500;28;20079;-53
2022/03/08 05:06:17;;;;;;;1.92;1.65;;;;;;;18.32;36.88;101141.47;5015362;28;20117;-54
2022/03/08 05:08:43;;;;;;;1.60;1.38;;;;;;;18.31;36.91;101151.19;5007702;28;20037;-48
2022/03/08 05:11:08;;;;;;;2.67;1.50;;;;;;;18.31;36.97;101151.19;5015372;28;20030;-50
2022/03/08 05:13:33;;;;;;;2.10;1.77;;;;;;;18.30;36.95;101151.38;5014601;28;20052;-48
2022/03/08 05:15:59;;;;;;;2.75;1.75;;;;;;;18.30;36.83;101156.66;5008405;28;20033;-49
2022/03/08 05:18:25;;;;;;;2.05;1.80;;;;;;;18.30;36.82;101152.19;5014840;28;20079;-47
2022/03/08 05:20:50;;;;;;;2.80;1.92;;;;;;;18.30;36.82;101157.47;5008781;28;20028;-52
2022/03/08 05:23:16;;;;;;;2.28;1.52;;;;;;;18.31;36.76;101158.28;5017825;28;20107;-55
2022/03/08 05:25:42;;;;;;;1.85;1.70;;;;;;;18.29;36.90;101147.91;5010160;28;20022;-50
2022/03/08 05:28:08;;;;;;;2.20;1.85;;;;;;;18.30;36.79;101161.94;5015581;28;20032;-54
2022/03/08 05:30:33;;;;;;;2.05;1.75;;;;;;;18.31;36.90;101163.56;5010167;28;20868;-52
2022/03/08 05:32:59;;;;;;;1.85;1.42;;;;;;;18.31;36.74;101153.00;5007481;28;20109;-54
2022/03/08 05:35:25;;;;;;;1.63;1.45;;;;;;;18.31;36.70;101161.75;5014704;28;20029;-53
2022/03/08 05:37:50;;;;;;;2.35;2.15;;;;;;;18.31;36.78;101163.56;5014569;28;20615;-50
2022/03/08 05:40:16;;;;;;;2.15;1.95;;;;;;;18.30;36.83;101160.09;4996829;28;20050;-53
2022/03/08 05:42:43;;;;;;;3.63;1.70;;;;;;;18.29;36.75;101174.28;5014441;28;20030;-50
2022/03/08 05:45:11;;;;;;;1.88;1.63;;;;;;;18.30;36.70;101159.28;5020627;28;20037;-50
2022/03/08 05:47:38;;;;;;;3.28;1.75;;;;;;;18.29;36.79;101170.84;5014684;28;20264;-52
2022/03/08 05:50:05;;;;;;;1.80;1.70;;;;;;;18.28;36.69;101171.84;5016102;28;20042;-51
2022/03/08 05:52:31;;;;;;;1.85;1.35;;;;;;;18.26;36.81;101168.56;5012650;28;20022;-47
2022/03/08 05:54:56;;;;;;;1.85;1.40;;;;;;;18.25;36.90;101170.38;5014645;28;20049;-52
2022/03/08 05:57:22;;;;;;;2.42;1.58;;;;;;;18.22;37.11;101174.19;5014058;28;20485;-49
2022/03/08 05:59:49;;;;;;;1.48;1.30;;;;;;;18.22;37.07;101171.53;5013148;28;20053;-47
2022/03/08 06:02:16;;;;;;;1.63;1.40;;;;;;;18.22;36.82;101174.19;5017384;28;20129;-49
2022/03/08 06:04:41;;;;;;;2.22;1.45;;;;;;;18.22;36.78;101176.81;5011868;28;20132;-46
2022/03/08 06:07:07;;;;;;;2.28;1.20;;;;;;;18.23;37.00;101178.47;5013893;28;20040;-50
2022/03/08 06:09:32;;;;;;;1.85;1.30;;;;;;;18.23;37.00;101178.47;5010520;28;20041;-52
2022/03/08 06:11:58;;;;;;;1.85;1.23;;;;;;;18.23;37.11;101178.47;5014455;28;20216;-46
2022/03/08 06:14:23;;;;;;;3.35;1.73;;;;;;;18.22;37.15;101182.09;5026652;28;20076;-49
2022/03/08 06:16:49;;;;;;;1.83;1.27;;;;;;;18.22;37.33;101174.19;5015175;28;20022;-47
2022/03/08 06:19:14;;;;;;;4.60;1.27;;;;;;;18.21;37.31;101183.09;5019299;28;20038;-47
2022/03/08 06:21:39;;;;;;;4.00;1.70;;;;;;;18.22;37.29;101191.81;5015165;28;20034;-46
2022/03/08 06:24:05;;;;;;;2.58;1.65;;;;;;;18.20;37.44;101186.72;5027451;28;20036;-47
2022/03/08 06:26:31;;;;;;;3.10;1.52;;;;;;;18.19;37.27;101182.44;5013060;28;20029;-49
2022/03/08 06:28:57;;;;;;;2.40;1.17;;;;;;;18.20;37.39;101193.81;5014475;28;20489;-46
2022/03/08 06:31:22;;;;;;;2.58;1.98;;;;;;;18.21;37.37;101200.72;5018183;28;20025;-50
2022/03/08 06:33:48;;;;;;;3.58;1.70;;;;;;;18.18;37.43;101201.91;5017921;28;20378;-47
2022/03/08 06:36:14;;;;;;;3.10;1.90;;;;;;;18.18;37.33;101207.16;5010935;28;20068;-44
2022/03/08 06:38:39;;;;;;;2.67;1.23;;;;;;;18.19;37.48;101213.28;5010150;28;20370;-49
2022/03/08 06:41:04;;;;;;;3.00;1.58;;;;;;;18.18;37.53;101209.81;5024101;28;20033;-47
2022/03/08 06:43:30;;;;;;;1.90;1.38;;;;;;;18.17;37.39;101210.81;5017684;28;20029;-48
2022/03/08 06:45:55;;;;;;;1.73;1.30;;;;;;;18.16;37.45;101222.34;5022616;28;20037;-48
2022/03/08 06:48:21;;;;;;;2.50;1.58;;;;;;;18.16;37.63;101218.91;5012293;28;20033;-49
2022/03/08 06:50:46;;;;;;;3.15;1.60;;;;;;;18.14;37.59;101216.44;5010088;28;20030;-52
2022/03/08 06:53:12;;;;;;;1.67;1.35;;;;;;;18.14;37.73;101219.06;5010486;28;20037;-45
2022/03/08 06:55:37;;;;;;;3.45;1.80;;;;;;;18.13;37.71;101222.69;5011441;28;20370;-49
2022/03/08 06:58:03;;;;;;;2.40;1.27;;;;;;;18.13;37.78;101213.97;5009851;28;20022;-46
2022/03/08 07:00:29;;;;;;;2.42;1.58;;;;;;;18.11;37.74;101222.06;5013777;28;20397;-50
2022/03/08 07:02:55;;;;;;;1.52;1.33;;;;;;;18.12;37.76;101223.69;5017172;28;20030;-47
2022/03/08 07:05:20;;;;;;;2.67;1.40;;;;;;;18.12;37.70;101214.97;5010469;28;20029;-50
2022/03/08 07:07:46;;;;;;;3.13;1.15;;;;;;;18.10;37.71;101220.41;5011982;28;20164;-48
2022/03/08 07:10:11;;;;;;;1.45;1.15;;;;;;;18.11;37.64;101222.06;5019724;28;20397;-42
2022/03/08 07:12:37;;;;;;;2.50;1.40;;;;;;;18.13;37.75;101222.69;5014830;28;20095;-43
2022/03/08 07:15:03;;;;;;;3.60;1.95;;;;;;;18.18;38.34;101216.91;5014609;28;20124;-44
2022/03/08 07:17:29;;;;;;;5.93;1.95;;;;;;;18.30;40.43;101219.97;5019196;28;20034;-44
2022/03/08 07:19:54;;;;;;;7.70;2.80;;;;;;;18.45;41.84;101210.25;5016462;28;20540;-49
2022/03/08 07:22:19;;;;;;;14.07;2.85;;;;;;;18.49;41.36;101220.28;5022448;28;20069;-47
2022/03/08 07:24:45;;;;;;;5.07;1.90;;;;;;;18.52;40.50;101213.81;5027370;28;20142;-48
2022/03/08 07:27:10;;;;;;;5.40;2.33;;;;;;;18.53;40.17;101215.47;5028492;28;20025;-43
2022/03/08 07:29:36;;;;;;;3.15;1.70;;;;;;;18.55;40.09;101218.75;5031510;28;20025;-47
2022/03/08 07:32:02;;;;;;;23.70;2.05;;;;;;;18.55;40.35;101218.75;5024866;28;20028;-47
2022/03/08 07:34:28;;;;;;;7.25;1.95;;;;;;;18.53;40.87;101216.28;5025134;28;20488;-44
2022/03/08 07:36:54;;;;;;;20.20;2.85;;;;;;;18.57;40.80;101219.38;5027106;28;20479;-52
2022/03/08 07:39:19;;;;;;;9.55;1.77;;;;;;;18.62;40.72;101213.59;5027259;28;20112;-48
2022/03/08 07:41:45;;;;;;;4.55;1.23;;;;;;;18.65;40.64;101214.06;5019047;28;20037;-48
2022/03/08 07:44:10;;;;;;;5.30;1.45;;;;;;;18.70;40.29;101222.28;5026764;28;20455;-45
2022/03/08 07:46:36;;;;;;;4.60;1.42;;;;;;;18.77;40.18;101214.47;5025455;28;20040;-41
2022/03/08 07:49:02;;;;;;;6.68;2.10;;;;;;;18.82;40.23;101210.28;5000304;28;20042;-41
2022/03/08 07:51:27;;;;;;;11.48;4.85;;;;;;;18.88;40.19;101212.22;5026036;28;20542;-42
2022/03/08 07:53:53;;;;;;;5.10;3.15;;;;;;;18.91;40.15;101213.63;5025794;28;20034;-42
2022/03/08 07:56:19;;;;;;;4.85;2.80;;;;;;;18.95;40.17;101214.09;5022371;28;20029;-47
2022/03/08 07:58:46;;;;;;;8.02;2.55;;;;;;;18.99;39.92;101212.75;5026682;28;20030;-43
2022/03/08 08:01:12;;;;;;;12.25;2.50;;;;;;;19.09;39.88;101215.94;5020947;28;20062;-42
2022/03/08 08:03:37;;;;;;;16.13;1.92;;;;;;;19.16;38.79;101222.13;5015419;28;20106;-45
2022/03/08 08:06:03;;;;;;;4.88;1.83;;;;;;;19.14;37.00;101226.78;5026475;28;20036;-43
2022/03/08 08:08:29;;;;;;;6.47;3.03;;;;;;;19.10;34.94;101220.22;5024914;28;21048;-41
2022/03/08 08:10:54;;;;;;;17.23;2.47;;;;;;;19.11;33.53;101219.22;5010214;28;20416;-43
2022/03/08 08:13:20;;;;;;;11.95;3.30;;;;;;;19.11;32.40;101217.41;5012257;28;20051;-42
2022/03/08 08:15:45;;;;;;;5.85;2.40;;;;;;;19.11;31.24;101225.31;5019271;28;20063;-42
2022/03/08 08:18:11;;;;;;;6.88;2.65;;;;;;;19.04;29.90;101221.75;5019421;28;20037;-45
2022/03/08 08:20:36;;;;;;;12.80;3.95;;;;;;;19.04;29.47;101220.94;5023272;28;20184;-46
2022/03/08 08:23:02;;;;;;;5.32;2.28;;;;;;;19.10;29.65;101215.75;5017671;28;20025;-39
2022/03/08 08:25:27;;;;;;;6.32;2.42;;;;;;;19.17;30.59;101219.31;5019526;28;20318;-45
2022/03/08 08:27:53;;;;;;;4.97;2.00;;;;;;;19.22;30.92;101216.94;5016779;28;20032;-44
2022/03/08 08:30:18;;;;;;;6.50;1.88;;;;;;;19.27;30.98;101216.41;5008544;28;20168;-43
2022/03/08 08:32:44;;;;;;;3.08;1.73;;;;;;;19.30;31.26;101216.03;5012617;28;20029;-43
2022/03/08 08:35:10;;;;;;;2.45;1.70;;;;;;;19.31;31.61;101212.38;5016702;28;20033;-43
2022/03/08 08:37:35;;;;;;;6.30;1.92;;;;;;;19.27;31.88;101202.38;5015314;28;20140;-41
2022/03/08 08:40:03;;;;;;;2.03;1.40;;;;;;;19.25;32.11;101207.84;5016766;28;20021;-46
2022/03/08 08:42:28;;;;;;;2.72;1.55;;;;;;;19.24;32.25;101211.47;5008831;28;20033;-44
2022/03/08 08:44:54;;;;;;;6.88;1.88;;;;;;;19.22;32.43;101211.66;5015486;28;20044;-43
2022/03/08 08:47:19;;;;;;;8.35;1.80;;;;;;;19.22;32.59;101210.84;5012029;28;20250;-46
2022/03/08 08:49:44;;;;;;;4.43;1.30;;;;;;;19.22;32.56;101205.56;5021461;28;20443;-42
2022/03/08 08:52:11;;;;;;;3.42;1.13;;;;;;;19.20;32.71;101211.03;5017149;28;20395;-43
2022/03/08 08:54:37;;;;;;;1.73;1.10;;;;;;;19.18;32.91;101210.38;5018197;28;20064;-46
2022/03/08 08:57:02;;;;;;;3.10;1.15;;;;;;;19.17;32.91;101198.19;5015379;28;20474;-42
2022/03/08 08:59:28;;;;;;;5.00;1.10;;;;;;;19.15;32.93;101205.47;5007947;28;20029;-43
2022/03/08 09:01:53;;;;;;;4.30;0.90;;;;;;;19.13;33.25;101207.47;5014669;28;20053;-45
2022/03/08 09:04:18;;;;;;;2.33;1.38;;;;;;;19.12;33.13;101210.28;5009290;28;20061;-44
2022/03/08 09:06:44;;;;;;;3.95;1.15;;;;;;;19.10;33.12;101204.38;5008035;28;20042;-44
2022/03/08 09:09:09;;;;;;;3.00;1.05;;;;;;;19.09;33.26;101194.81;5008345;28;20033;-43
2022/03/08 09:11:36;;;;;;;3.33;1.00;;;;;;;19.07;33.23;101207.38;5017815;28;20072;-46
2022/03/08 09:14:02;;;;;;;3.70;0.95;;;;;;;19.06;33.21;101201.28;5017868;28;20501;-43
2022/03/08 09:16:28;;;;;;;1.48;0.90;;;;;;;19.06;33.26;101196.00;5020261;28;20034;-42
2022/03/08 09:18:53;;;;;;;1.83;0.90;;;;;;;19.07;33.25;101191.53;5013832;28;20033;-42
2022/03/08 09:21:19;;;;;;;1.75;0.80;;;;;;;19.07;33.26;101202.09;5021459;28;20036;-42
2022/03/08 09:23:44;;;;;;;5.93;0.82;;;;;;;19.07;33.18;101202.91;5007659;28;20550;-42
2022/03/08 09:26:10;;;;;;;3.33;0.80;;;;;;;19.07;33.16;101196.81;5015104;28;20132;-44
2022/03/08 09:28:35;;;;;;;1.88;0.57;;;;;;;19.06;33.27;101193.34;5014735;28;20428;-43
2022/03/08 09:31:01;;;;;;;1.63;0.68;;;;;;;19.07;33.21;101194.16;5012521;28;20047;-45
2022/03/08 09:33:27;;;;;;;1.80;0.85;;;;;;;19.07;33.27;101191.53;5014049;28;20041;-44
2022/03/08 09:35:52;;;;;;;1.38;0.70;;;;;;;19.06;33.11;101189.88;5015024;28;20038;-42
2022/03/08 09:38:18;;;;;;;1.20;0.65;;;;;;;19.06;33.17;101192.53;5015461;28;20124;-44
2022/03/08 09:40:43;;;;;;;3.63;0.60;;;;;;;19.04;33.26;101189.25;5011587;28;20048;-46
2022/03/08 09:43:09;;;;;;;0.80;0.50;;;;;;;19.03;32.87;101195.53;5017418;28;20062;-43
2022/03/08 09:45:35;;;;;;;1.20;0.60;;;;;;;19.02;32.95;101185.97;5018283;28;20073;-42
2022/03/08 09:48:01;;;;;;;1.95;0.98;;;;;;;19.02;32.98;101188.59;5021252;28;20098;-44
2022/03/08 09:50:28;;;;;;;1.30;0.70;;;;;;;19.05;32.87;101181.16;5025748;28;20029;-45
2022/03/08 09:52:56;;;;;;;2.05;0.80;;;;;;;19.06;32.65;101181.97;5022965;28;20099;-45
2022/03/08 09:55:23;;;;;;;1.63;0.50;;;;;;;19.07;32.51;101180.97;5013509;28;20420;-45
2022/03/08 09:57:49;;;;;;;0.95;0.52;;;;;;;19.08;32.48;101175.50;5024943;28;20030;-44
2022/03/08 10:00:14;;;;;;;1.05;0.50;;;;;;;19.08;32.67;101164.94;5021986;28;20038;-44
2022/03/08 10:02:44;;;;;;;1.92;0.50;;;;;;;19.06;32.65;101168.75;5020581;28;20699;-44
2022/03/08 10:05:10;;;;;;;2.97;0.70;;;;;;;19.08;32.81;101179.97;5019368;28;20259;-44
2022/03/08 10:07:35;;;;;;;3.42;0.60;;;;;;;19.08;32.78;101166.75;5023778;28;20678;-44
2022/03/08 10:10:00;;;;;;;1.67;0.65;;;;;;;19.06;32.50;101163.47;5020135;28;20538;-46
2022/03/08 10:12:27;;;;;;;3.25;0.50;;;;;;;19.04;31.66;101160.19;5017467;28;20045;-46
2022/03/08 10:14:53;;;;;;;2.38;0.60;;;;;;;19.01;30.92;101160.56;5026383;28;20044;-44
2022/03/08 10:17:41;;;;;;;1.10;0.60;;;;;;;18.96;29.11;101160.28;5027396;28;20033;-47
2022/03/08 10:20:08;;;;;;;4.45;0.75;;;;;;;18.95;29.02;101150.72;5024716;28;20124;-43
2022/03/08 10:22:41;;;;;;;0.88;0.52;;;;;;;18.94;27.89;101154.38;5018920;28;20459;-45
2022/03/08 10:25:10;;;;;;;1.42;0.50;;;;;;;18.93;27.33;101150.91;5021179;28;20034;-44
2022/03/08 10:27:35;;;;;;;1.63;0.50;;;;;;;18.91;26.81;101145.00;5013396;28;20026;-45
2022/03/08 10:30:03;;;;;;;0.95;0.50;;;;;;;18.89;26.70;101152.31;5024209;28;20374;-48
2022/03/08 10:32:36;;;;;;;3.42;0.73;;;;;;;18.88;26.93;101140.09;5026791;28;20025;-43
2022/03/08 10:35:02;;;;;;;0.80;0.47;;;;;;;18.89;27.60;101141.75;5018482;28;20081;-43
2022/03/08 10:37:35;;;;;;;2.53;0.60;;;;;;;18.87;27.98;101134.00;5022124;28;20456;-42
2022/03/08 10:40:04;;;;;;;2.25;0.47;;;;;;;18.86;28.57;101132.38;5022314;28;20108;-44
2022/03/08 10:42:38;;;;;;;10.13;1.10;;;;;;;18.85;28.92;101127.25;5020656;28;20057;-41
2022/03/08 10:45:06;;;;;;;5.53;0.57;;;;;;;18.84;29.37;101115.06;5025393;28;20056;-43
2022/03/08 10:47:45;;;;;;;5.85;0.50;;;;;;;18.81;29.91;101124.16;5023913;28;20029;-45
2022/03/08 10:50:15;;;;;;;6.78;0.70;;;;;;;18.81;29.70;101118.88;5019578;28;20434;-43
2022/03/08 10:52:43;;;;;;;4.65;0.88;;;;;;;18.80;29.32;101119.06;5010659;28;20032;-45
2022/03/08 10:55:18;;;;;;;9.32;0.82;;;;;;;18.77;29.09;101122.06;5024182;28;20033;-48
2022/03/08 10:57:51;;;;;;;4.20;1.00;;;;;;;18.73;28.80;101121.63;5019586;28;20072;-42
2022/03/08 11:00:20;;;;;;;4.05;0.60;;;;;;;18.72;28.59;101114.69;5019069;28;20874;-43
2022/03/08 11:03:00;;;;;;;2.75;0.70;;;;;;;18.67;28.00;101103.88;5024594;28;20365;-43
2022/03/08 11:05:28;;;;;;;2.40;0.50;;;;;;;18.68;28.48;101108.13;5024548;28;20034;-42
2022/03/08 11:07:57;;;;;;;4.85;0.77;;;;;;;18.67;28.54;101100.41;5027648;28;20492;-44
2022/03/08 11:10:23;;;;;;;2.60;0.40;;;;;;;18.67;28.70;101093.31;5018160;28;20327;-43
2022/03/08 11:12:49;;;;;;;4.50;0.55;;;;;;;18.67;28.71;101095.94;5016720;28;20128;-45
2022/03/08 11:15:17;;;;;;;1.98;0.50;;;;;;;18.66;29.02;101104.03;5027305;28;20534;-43
2022/03/08 11:17:48;;;;;;;1.63;0.55;;;;;;;18.64;29.05;101100.75;5021797;28;20033;-42
2022/03/08 11:20:17;;;;;;;4.57;0.80;;;;;;;18.62;29.26;101103.59;5020567;28;20132;-45
2022/03/08 11:22:43;;;;;;;6.20;0.80;;;;;;;18.58;29.60;101100.47;5022234;28;20113;-45